sensor_id;sensor_type;location;lat;lon;timestamp;temperature;humidity
33476;DHT22;19814;48.224;11.422;2024-03-25T00:00:31;4.70;99.90
33476;DHT22;19814;48.224;11.422;2024-03-25T00:02:56;4.70;99.90
33476;DHT22;19814;48.224;11.422;2024-03-25T00:05:22;4.70;99.90
33476;DHT22;19814;48.224;11.422;2024-03-25T00:07:49;4.70;99.90
33476;DHT22;19814;48.224;11.422;2024-03-25T00:10:15;4.80;99.90
33476;DHT22;19814;48.224;11.422;2024-03-25T00:12:40;4.80;99.90
33476;DHT22;19814;48.224;11.422;2024-03-25T00:15:06;4.80;99.90
33476;DHT22;19814;48.224;11.422;2024-03-25T00:17:33;4.70;99.90
33476;DHT22;19814;48.224;11.422;2024-03-25T00:19:59;4.70;99.90
33476;DHT22;19814;48.224;11.422;2024-03-25T00:22:24;4.80;99.90
33476;DHT22;19814;48.224;11.422;2024-03-25T00:24:51;4.70;99.90
33476;DHT22;19814;48.224;11.422;2024-03-25T00:27:16;4.70;99.90
33476;DHT22;19814;48.224;11.422;2024-03-25T00:29:42;4.70;99.90
33476;DHT22;19814;48.224;11.422;2024-03-25T00:32:07;4.70;99.90
33476;DHT22;19814;48.224;11.422;2024-03-25T00:34:33;4.70;99.90
33476;DHT22;19814;48.224;11.422;2024-03-25T00:36:59;4.60;99.90
33476;DHT22;19814;48.224;11.422;2024-03-25T00:39:25;4.60;99.90
33476;DHT22;19814;48.224;11.422;2024-03-25T00:41:54;4.60;99.90
33476;DHT22;19814;48.224;11.422;2024-03-25T00:44:20;4.60;99.90
33476;DHT22;19814;48.224;11.422;2024-03-25T00:46:45;4.60;99.90
33476;DHT22;19814;48.224;11.422;2024-03-25T00:49:11;4.60;99.90
33476;DHT22;19814;48.224;11.422;2024-03-25T00:51:36;4.60;99.90
33476;DHT22;19814;48.224;11.422;2024-03-25T00:54:02;4.60;99.90
33476;DHT22;19814;48.224;11.422;2024-03-25T00:56:28;4.60;99.90
33476;DHT22;19814;48.224;11.422;2024-03-25T00:58:54;4.60;99.90
33476;DHT22;19814;48.224;11.422;2024-03-25T01:01:20;4.60;99.90
33476;DHT22;19814;48.224;11.422;2024-03-25T01:03:46;4.60;99.90
33476;DHT22;19814;48.224;11.422;2024-03-25T01:06:11;4.60;99.90
33476;DHT22;19814;48.224;11.422;2024-03-25T01:08:37;4.60;99.90
33476;DHT22;19814;48.224;11.422;2024-03-25T01:11:02;4.70;99.90
33476;DHT22;19814;48.224;11.422;2024-03-25T01:13:28;4.60;99.90
33476;DHT22;19814;48.224;11.422;2024-03-25T01:15:53;4.70;99.90
33476;DHT22;19814;48.224;11.422;2024-03-25T01:18:19;4.70;99.90
33476;DHT22;19814;48.224;11.422;2024-03-25T01:20:44;4.70;99.90
33476;DHT22;19814;48.224;11.422;2024-03-25T01:23:10;4.70;99.90
33476;DHT22;19814;48.224;11.422;2024-03-25T01:25:35;4.70;99.90
33476;DHT22;19814;48.224;11.422;2024-03-25T01:28:01;4.70;99.90
33476;DHT22;19814;48.224;11.422;2024-03-25T01:30:27;4.70;99.90
33476;DHT22;19814;48.224;11.422;2024-03-25T01:32:54;4.70;99.90
33476;DHT22;19814;48.224;11.422;2024-03-25T01:35:19;4.70;99.90
33476;DHT22;19814;48.224;11.422;2024-03-25T01:37:45;4.70;99.90
33476;DHT22;19814;48.224;11.422;2024-03-25T01:40:11;4.70;99.90
33476;DHT22;19814;48.224;11.422;2024-03-25T01:42:37;4.70;99.90
33476;DHT22;19814;48.224;11.422;2024-03-25T01:45:02;4.70;99.90
33476;DHT22;19814;48.224;11.422;2024-03-25T01:47:28;4.70;99.90
33476;DHT22;19814;48.224;11.422;2024-03-25T01:49:54;4.70;99.90
33476;DHT22;19814;48.224;11.422;2024-03-25T01:52:22;4.70;99.90
33476;DHT22;19814;48.224;11.422;2024-03-25T01:54:48;4.70;99.90
33476;DHT22;19814;48.224;11.422;2024-03-25T01:57:15;4.70;99.90
33476;DHT22;19814;48.224;11.422;2024-03-25T01:59:40;4.70;99.90
33476;DHT22;19814;48.224;11.422;2024-03-25T02:02:06;4.60;99.90
33476;DHT22;19814;48.224;11.422;2024-03-25T02:04:32;4.70;99.90
33476;DHT22;19814;48.224;11.422;2024-03-25T02:06:57;4.70;99.90
33476;DHT22;19814;48.224;11.422;2024-03-25T02:09:25;4.70;99.90
33476;DHT22;19814;48.224;11.422;2024-03-25T02:11:52;4.60;99.90
33476;DHT22;19814;48.224;11.422;2024-03-25T02:14:18;4.60;99.90
33476;DHT22;19814;48.224;11.422;2024-03-25T02:16:43;4.60;99.90
33476;DHT22;19814;48.224;11.422;2024-03-25T02:19:09;4.60;99.90
33476;DHT22;19814;48.224;11.422;2024-03-25T02:21:36;4.60;99.90
33476;DHT22;19814;48.224;11.422;2024-03-25T02:24:02;4.60;99.90
33476;DHT22;19814;48.224;11.422;2024-03-25T02:26:30;4.60;99.90
33476;DHT22;19814;48.224;11.422;2024-03-25T02:28:55;4.60;99.90
33476;DHT22;19814;48.224;11.422;2024-03-25T02:31:23;4.60;99.90
33476;DHT22;19814;48.224;11.422;2024-03-25T02:33:48;4.60;99.90
33476;DHT22;19814;48.224;11.422;2024-03-25T02:36:14;4.60;99.90
33476;DHT22;19814;48.224;11.422;2024-03-25T02:38:39;4.60;99.90
33476;DHT22;19814;48.224;11.422;2024-03-25T02:41:05;4.60;99.90
33476;DHT22;19814;48.224;11.422;2024-03-25T02:43:31;4.60;99.90
33476;DHT22;19814;48.224;11.422;2024-03-25T02:45:56;4.60;99.90
33476;DHT22;19814;48.224;11.422;2024-03-25T02:48:22;4.60;99.90
33476;DHT22;19814;48.224;11.422;2024-03-25T02:50:47;4.60;99.90
33476;DHT22;19814;48.224;11.422;2024-03-25T02:53:13;4.70;99.90
33476;DHT22;19814;48.224;11.422;2024-03-25T02:55:38;4.70;99.90
33476;DHT22;19814;48.224;11.422;2024-03-25T02:58:04;4.70;99.90
33476;DHT22;19814;48.224;11.422;2024-03-25T03:00:29;4.70;99.90
33476;DHT22;19814;48.224;11.422;2024-03-25T03:02:55;4.70;99.90
33476;DHT22;19814;48.224;11.422;2024-03-25T03:05:20;4.60;99.90
33476;DHT22;19814;48.224;11.422;2024-03-25T03:07:46;4.60;99.90
33476;DHT22;19814;48.224;11.422;2024-03-25T03:10:11;4.60;99.90
33476;DHT22;19814;48.224;11.422;2024-03-25T03:12:37;4.60;99.90
33476;DHT22;19814;48.224;11.422;2024-03-25T03:15:02;4.70;99.90
33476;DHT22;19814;48.224;11.422;2024-03-25T03:17:28;4.60;99.90
33476;DHT22;19814;48.224;11.422;2024-03-25T03:19:53;4.70;99.90
33476;DHT22;19814;48.224;11.422;2024-03-25T03:22:19;4.70;99.90
33476;DHT22;19814;48.224;11.422;2024-03-25T03:24:44;4.70;99.90
33476;DHT22;19814;48.224;11.422;2024-03-25T03:27:10;4.60;99.90
33476;DHT22;19814;48.224;11.422;2024-03-25T03:29:35;4.60;99.90
33476;DHT22;19814;48.224;11.422;2024-03-25T03:32:01;4.60;99.90
33476;DHT22;19814;48.224;11.422;2024-03-25T03:34:26;4.60;99.90
33476;DHT22;19814;48.224;11.422;2024-03-25T03:36:52;4.60;99.90
33476;DHT22;19814;48.224;11.422;2024-03-25T03:39:17;4.60;99.90
33476;DHT22;19814;48.224;11.422;2024-03-25T03:41:43;4.60;99.90
33476;DHT22;19814;48.224;11.422;2024-03-25T03:44:08;4.50;99.90
33476;DHT22;19814;48.224;11.422;2024-03-25T03:46:34;4.50;99.90
33476;DHT22;19814;48.224;11.422;2024-03-25T03:49:00;4.40;99.90
33476;DHT22;19814;48.224;11.422;2024-03-25T03:51:26;4.30;99.90
33476;DHT22;19814;48.224;11.422;2024-03-25T03:53:51;4.30;99.90
33476;DHT22;19814;48.224;11.422;2024-03-25T03:56:17;4.20;99.90
33476;DHT22;19814;48.224;11.422;2024-03-25T03:58:42;4.20;99.90
33476;DHT22;19814;48.224;11.422;2024-03-25T04:01:17;4.20;99.90
33476;DHT22;19814;48.224;11.422;2024-03-25T04:03:43;4.10;99.90
33476;DHT22;19814;48.224;11.422;2024-03-25T04:06:09;4.00;99.90
33476;DHT22;19814;48.224;11.422;2024-03-25T04:08:35;4.00;99.90
33476;DHT22;19814;48.224;11.422;2024-03-25T04:11:01;3.90;99.90
33476;DHT22;19814;48.224;11.422;2024-03-25T04:13:26;3.90;99.90
33476;DHT22;19814;48.224;11.422;2024-03-25T04:15:52;3.90;99.90
33476;DHT22;19814;48.224;11.422;2024-03-25T04:18:18;3.80;99.90
33476;DHT22;19814;48.224;11.422;2024-03-25T04:20:44;3.80;99.90
33476;DHT22;19814;48.224;11.422;2024-03-25T04:23:10;3.70;99.90
33476;DHT22;19814;48.224;11.422;2024-03-25T04:25:35;3.70;99.90
33476;DHT22;19814;48.224;11.422;2024-03-25T04:28:04;3.70;99.90
33476;DHT22;19814;48.224;11.422;2024-03-25T04:30:31;3.70;99.90
33476;DHT22;19814;48.224;11.422;2024-03-25T04:32:57;3.70;99.90
33476;DHT22;19814;48.224;11.422;2024-03-25T04:35:23;3.70;99.90
33476;DHT22;19814;48.224;11.422;2024-03-25T04:37:48;3.70;99.90
33476;DHT22;19814;48.224;11.422;2024-03-25T04:40:14;3.70;99.90
33476;DHT22;19814;48.224;11.422;2024-03-25T04:42:40;3.70;99.90
33476;DHT22;19814;48.224;11.422;2024-03-25T04:45:05;3.70;99.90
33476;DHT22;19814;48.224;11.422;2024-03-25T04:47:32;3.60;99.90
33476;DHT22;19814;48.224;11.422;2024-03-25T04:49:57;3.60;99.90
33476;DHT22;19814;48.224;11.422;2024-03-25T04:52:23;3.60;99.90
33476;DHT22;19814;48.224;11.422;2024-03-25T04:54:49;3.50;99.90
33476;DHT22;19814;48.224;11.422;2024-03-25T04:57:15;3.50;99.90
33476;DHT22;19814;48.224;11.422;2024-03-25T04:59:40;3.50;99.90
33476;DHT22;19814;48.224;11.422;2024-03-25T05:02:06;3.40;99.90
33476;DHT22;19814;48.224;11.422;2024-03-25T05:04:31;3.40;99.90
33476;DHT22;19814;48.224;11.422;2024-03-25T05:06:57;3.40;99.90
33476;DHT22;19814;48.224;11.422;2024-03-25T05:09:22;3.40;99.90
33476;DHT22;19814;48.224;11.422;2024-03-25T05:11:48;3.40;99.90
33476;DHT22;19814;48.224;11.422;2024-03-25T05:14:13;3.40;99.90
33476;DHT22;19814;48.224;11.422;2024-03-25T05:16:39;3.40;99.90
33476;DHT22;19814;48.224;11.422;2024-03-25T05:19:04;3.40;99.90
33476;DHT22;19814;48.224;11.422;2024-03-25T05:21:31;3.40;99.90
33476;DHT22;19814;48.224;11.422;2024-03-25T05:23:56;3.30;99.90
33476;DHT22;19814;48.224;11.422;2024-03-25T05:26:22;3.40;99.90
33476;DHT22;19814;48.224;11.422;2024-03-25T05:28:52;3.40;99.90
33476;DHT22;19814;48.224;11.422;2024-03-25T05:31:17;3.40;99.90
33476;DHT22;19814;48.224;11.422;2024-03-25T05:33:43;3.40;99.90
33476;DHT22;19814;48.224;11.422;2024-03-25T05:36:08;3.40;99.90
33476;DHT22;19814;48.224;11.422;2024-03-25T05:38:34;3.40;99.90
33476;DHT22;19814;48.224;11.422;2024-03-25T05:40:59;3.40;99.90
33476;DHT22;19814;48.224;11.422;2024-03-25T05:43:25;3.50;99.90
33476;DHT22;19814;48.224;11.422;2024-03-25T05:45:53;3.50;99.90
33476;DHT22;19814;48.224;11.422;2024-03-25T05:48:19;3.50;99.90
33476;DHT22;19814;48.224;11.422;2024-03-25T05:50:45;3.60;99.90
33476;DHT22;19814;48.224;11.422;2024-03-25T05:53:10;3.60;99.90
33476;DHT22;19814;48.224;11.422;2024-03-25T05:55:36;3.70;99.90
33476;DHT22;19814;48.224;11.422;2024-03-25T05:58:01;3.70;99.90
33476;DHT22;19814;48.224;11.422;2024-03-25T06:00:28;3.70;99.90
33476;DHT22;19814;48.224;11.422;2024-03-25T06:02:54;3.80;99.90
33476;DHT22;19814;48.224;11.422;2024-03-25T06:05:19;3.90;99.90
33476;DHT22;19814;48.224;11.422;2024-03-25T06:07:45;4.00;99.90
33476;DHT22;19814;48.224;11.422;2024-03-25T06:10:10;4.00;99.90
33476;DHT22;19814;48.224;11.422;2024-03-25T06:12:36;4.10;99.90
33476;DHT22;19814;48.224;11.422;2024-03-25T06:15:01;4.20;99.90
33476;DHT22;19814;48.224;11.422;2024-03-25T06:17:27;4.30;99.90
33476;DHT22;19814;48.224;11.422;2024-03-25T06:19:53;4.30;99.90
33476;DHT22;19814;48.224;11.422;2024-03-25T06:22:18;4.40;99.90
33476;DHT22;19814;48.224;11.422;2024-03-25T06:24:44;4.40;99.90
33476;DHT22;19814;48.224;11.422;2024-03-25T06:27:09;4.50;99.90
33476;DHT22;19814;48.224;11.422;2024-03-25T06:29:35;4.60;99.90
33476;DHT22;19814;48.224;11.422;2024-03-25T06:32:01;4.70;99.90
33476;DHT22;19814;48.224;11.422;2024-03-25T06:34:45;4.80;99.90
33476;DHT22;19814;48.224;11.422;2024-03-25T06:37:10;4.90;99.90
33476;DHT22;19814;48.224;11.422;2024-03-25T06:39:35;5.00;99.90
33476;DHT22;19814;48.224;11.422;2024-03-25T06:42:01;5.10;99.90
33476;DHT22;19814;48.224;11.422;2024-03-25T06:44:27;5.20;99.90
33476;DHT22;19814;48.224;11.422;2024-03-25T06:46:52;5.40;99.90
33476;DHT22;19814;48.224;11.422;2024-03-25T06:49:18;5.50;99.90
33476;DHT22;19814;48.224;11.422;2024-03-25T06:51:43;5.70;99.90
33476;DHT22;19814;48.224;11.422;2024-03-25T06:54:09;5.70;99.90
33476;DHT22;19814;48.224;11.422;2024-03-25T06:56:35;6.00;99.90
33476;DHT22;19814;48.224;11.422;2024-03-25T06:59:00;6.00;99.90
33476;DHT22;19814;48.224;11.422;2024-03-25T07:01:25;6.10;99.90
33476;DHT22;19814;48.224;11.422;2024-03-25T07:03:51;6.20;99.90
33476;DHT22;19814;48.224;11.422;2024-03-25T07:06:18;6.30;99.90
33476;DHT22;19814;48.224;11.422;2024-03-25T07:08:43;6.40;99.90
33476;DHT22;19814;48.224;11.422;2024-03-25T07:11:09;6.80;99.90
33476;DHT22;19814;48.224;11.422;2024-03-25T07:13:34;7.00;99.90
33476;DHT22;19814;48.224;11.422;2024-03-25T07:16:00;7.50;99.90
33476;DHT22;19814;48.224;11.422;2024-03-25T07:18:25;7.80;99.50
33476;DHT22;19814;48.224;11.422;2024-03-25T07:20:51;8.10;99.80
33476;DHT22;19814;48.224;11.422;2024-03-25T07:23:16;8.40;99.20
33476;DHT22;19814;48.224;11.422;2024-03-25T07:25:42;8.80;98.30
33476;DHT22;19814;48.224;11.422;2024-03-25T07:28:07;8.90;97.00
33476;DHT22;19814;48.224;11.422;2024-03-25T07:30:33;9.30;95.20
33476;DHT22;19814;48.224;11.422;2024-03-25T07:32:58;9.80;95.60
33476;DHT22;19814;48.224;11.422;2024-03-25T07:35:24;10.20;95.80
33476;DHT22;19814;48.224;11.422;2024-03-25T07:37:50;10.60;95.10
33476;DHT22;19814;48.224;11.422;2024-03-25T07:40:17;10.90;94.60
33476;DHT22;19814;48.224;11.422;2024-03-25T07:42:42;10.60;94.10
33476;DHT22;19814;48.224;11.422;2024-03-25T07:45:08;10.20;93.40
33476;DHT22;19814;48.224;11.422;2024-03-25T07:47:33;10.10;93.90
33476;DHT22;19814;48.224;11.422;2024-03-25T07:49:59;10.10;94.80
33476;DHT22;19814;48.224;11.422;2024-03-25T07:52:25;10.30;92.90
33476;DHT22;19814;48.224;11.422;2024-03-25T07:54:50;10.50;92.60
33476;DHT22;19814;48.224;11.422;2024-03-25T07:57:16;10.20;91.90
33476;DHT22;19814;48.224;11.422;2024-03-25T07:59:42;9.90;92.30
33476;DHT22;19814;48.224;11.422;2024-03-25T08:02:07;9.70;93.30
33476;DHT22;19814;48.224;11.422;2024-03-25T08:04:33;9.40;93.50
33476;DHT22;19814;48.224;11.422;2024-03-25T08:06:58;9.20;93.10
33476;DHT22;19814;48.224;11.422;2024-03-25T08:09:23;9.00;94.10
33476;DHT22;19814;48.224;11.422;2024-03-25T08:11:49;8.90;93.60
33476;DHT22;19814;48.224;11.422;2024-03-25T08:14:14;9.10;94.50
33476;DHT22;19814;48.224;11.422;2024-03-25T08:16:40;9.80;94.70
33476;DHT22;19814;48.224;11.422;2024-03-25T08:19:06;10.60;92.90
33476;DHT22;19814;48.224;11.422;2024-03-25T08:21:31;11.50;91.70
33476;DHT22;19814;48.224;11.422;2024-03-25T08:23:57;12.30;89.40
33476;DHT22;19814;48.224;11.422;2024-03-25T08:26:22;12.90;86.80
33476;DHT22;19814;48.224;11.422;2024-03-25T08:28:48;13.20;87.20
33476;DHT22;19814;48.224;11.422;2024-03-25T08:31:16;13.40;86.30
33476;DHT22;19814;48.224;11.422;2024-03-25T08:33:41;13.60;85.50
33476;DHT22;19814;48.224;11.422;2024-03-25T08:36:07;13.90;85.50
33476;DHT22;19814;48.224;11.422;2024-03-25T08:38:33;14.00;81.40
33476;DHT22;19814;48.224;11.422;2024-03-25T08:40:58;13.90;81.30
33476;DHT22;19814;48.224;11.422;2024-03-25T08:43:24;13.80;82.70
33476;DHT22;19814;48.224;11.422;2024-03-25T08:45:49;14.30;81.50
33476;DHT22;19814;48.224;11.422;2024-03-25T08:48:15;14.90;79.20
33476;DHT22;19814;48.224;11.422;2024-03-25T08:50:40;15.50;81.20
33476;DHT22;19814;48.224;11.422;2024-03-25T08:53:06;16.00;78.00
33476;DHT22;19814;48.224;11.422;2024-03-25T08:55:31;16.60;76.10
33476;DHT22;19814;48.224;11.422;2024-03-25T08:57:57;16.90;74.00
33476;DHT22;19814;48.224;11.422;2024-03-25T09:00:28;17.30;70.80
33476;DHT22;19814;48.224;11.422;2024-03-25T09:02:54;17.50;71.00
33476;DHT22;19814;48.224;11.422;2024-03-25T09:05:20;17.30;72.60
33476;DHT22;19814;48.224;11.422;2024-03-25T09:07:45;17.70;69.00
33476;DHT22;19814;48.224;11.422;2024-03-25T09:10:11;18.00;67.40
33476;DHT22;19814;48.224;11.422;2024-03-25T09:12:55;18.50;67.70
33476;DHT22;19814;48.224;11.422;2024-03-25T09:15:20;19.40;65.50
33476;DHT22;19814;48.224;11.422;2024-03-25T09:17:46;20.00;62.00
33476;DHT22;19814;48.224;11.422;2024-03-25T09:20:11;20.30;59.70
33476;DHT22;19814;48.224;11.422;2024-03-25T09:22:45;19.50;58.30
33476;DHT22;19814;48.224;11.422;2024-03-25T09:25:11;18.00;60.90
33476;DHT22;19814;48.224;11.422;2024-03-25T09:27:36;17.70;64.20
33476;DHT22;19814;48.224;11.422;2024-03-25T09:30:02;18.00;62.20
33476;DHT22;19814;48.224;11.422;2024-03-25T09:32:29;17.60;64.10
33476;DHT22;19814;48.224;11.422;2024-03-25T09:34:56;17.50;63.00
33476;DHT22;19814;48.224;11.422;2024-03-25T09:37:21;18.20;60.20
33476;DHT22;19814;48.224;11.422;2024-03-25T09:39:47;19.10;59.70
33476;DHT22;19814;48.224;11.422;2024-03-25T09:42:14;19.40;57.00
33476;DHT22;19814;48.224;11.422;2024-03-25T09:44:39;18.90;57.90
33476;DHT22;19814;48.224;11.422;2024-03-25T09:47:05;18.30;57.20
33476;DHT22;19814;48.224;11.422;2024-03-25T09:49:31;18.10;57.30
33476;DHT22;19814;48.224;11.422;2024-03-25T09:51:57;18.60;56.80
33476;DHT22;19814;48.224;11.422;2024-03-25T09:54:22;19.20;52.80
33476;DHT22;19814;48.224;11.422;2024-03-25T09:56:48;20.00;57.40
33476;DHT22;19814;48.224;11.422;2024-03-25T09:59:14;21.10;55.10
33476;DHT22;19814;48.224;11.422;2024-03-25T10:01:39;21.00;54.00
33476;DHT22;19814;48.224;11.422;2024-03-25T10:04:05;22.20;55.70
33476;DHT22;19814;48.224;11.422;2024-03-25T10:06:30;23.30;51.90
33476;DHT22;19814;48.224;11.422;2024-03-25T10:08:57;23.90;48.30
33476;DHT22;19814;48.224;11.422;2024-03-25T10:11:22;23.80;48.60
33476;DHT22;19814;48.224;11.422;2024-03-25T10:13:48;23.90;46.30
33476;DHT22;19814;48.224;11.422;2024-03-25T10:16:13;24.10;44.90
33476;DHT22;19814;48.224;11.422;2024-03-25T10:18:39;24.10;43.90
33476;DHT22;19814;48.224;11.422;2024-03-25T10:21:08;24.00;43.00
33476;DHT22;19814;48.224;11.422;2024-03-25T10:23:34;23.60;42.30
33476;DHT22;19814;48.224;11.422;2024-03-25T10:26:05;22.70;40.70
33476;DHT22;19814;48.224;11.422;2024-03-25T10:28:31;21.10;41.10
33476;DHT22;19814;48.224;11.422;2024-03-25T10:31:02;19.50;43.70
33476;DHT22;19814;48.224;11.422;2024-03-25T10:33:29;19.10;45.60
33476;DHT22;19814;48.224;11.422;2024-03-25T10:35:54;20.00;42.60
33476;DHT22;19814;48.224;11.422;2024-03-25T10:38:21;20.80;43.80
33476;DHT22;19814;48.224;11.422;2024-03-25T10:40:48;22.20;41.10
33476;DHT22;19814;48.224;11.422;2024-03-25T10:43:16;23.20;40.10
33476;DHT22;19814;48.224;11.422;2024-03-25T10:45:43;23.40;41.80
33476;DHT22;19814;48.224;11.422;2024-03-25T10:48:28;24.30;37.00
33476;DHT22;19814;48.224;11.422;2024-03-25T10:50:56;24.20;39.50
33476;DHT22;19814;48.224;11.422;2024-03-25T10:53:22;24.30;37.10
33476;DHT22;19814;48.224;11.422;2024-03-25T10:55:50;25.30;38.00
33476;DHT22;19814;48.224;11.422;2024-03-25T10:58:16;25.20;37.60
33476;DHT22;19814;48.224;11.422;2024-03-25T11:00:42;23.80;38.40
33476;DHT22;19814;48.224;11.422;2024-03-25T11:03:07;23.40;39.00
33476;DHT22;19814;48.224;11.422;2024-03-25T11:05:34;22.50;37.50
33476;DHT22;19814;48.224;11.422;2024-03-25T11:08:12;21.00;40.50
33476;DHT22;19814;48.224;11.422;2024-03-25T11:10:47;20.10;43.50
33476;DHT22;19814;48.224;11.422;2024-03-25T11:13:13;19.90;41.50
33476;DHT22;19814;48.224;11.422;2024-03-25T11:15:43;21.50;42.10
33476;DHT22;19814;48.224;11.422;2024-03-25T11:18:16;22.90;39.80
33476;DHT22;19814;48.224;11.422;2024-03-25T11:20:42;23.50;39.60
33476;DHT22;19814;48.224;11.422;2024-03-25T11:23:08;22.90;38.30
33476;DHT22;19814;48.224;11.422;2024-03-25T11:25:35;21.50;40.00
33476;DHT22;19814;48.224;11.422;2024-03-25T11:28:00;20.20;44.80
33476;DHT22;19814;48.224;11.422;2024-03-25T11:30:26;19.20;45.00
33476;DHT22;19814;48.224;11.422;2024-03-25T11:32:52;18.30;44.70
33476;DHT22;19814;48.224;11.422;2024-03-25T11:35:18;17.20;47.40
33476;DHT22;19814;48.224;11.422;2024-03-25T11:37:44;17.00;49.70
33476;DHT22;19814;48.224;11.422;2024-03-25T11:40:10;19.10;44.70
33476;DHT22;19814;48.224;11.422;2024-03-25T11:42:38;21.00;42.40
33476;DHT22;19814;48.224;11.422;2024-03-25T11:45:04;23.10;37.90
33476;DHT22;19814;48.224;11.422;2024-03-25T11:47:30;24.80;37.50
33476;DHT22;19814;48.224;11.422;2024-03-25T11:49:56;25.20;35.80
33476;DHT22;19814;48.224;11.422;2024-03-25T11:52:21;24.80;36.60
33476;DHT22;19814;48.224;11.422;2024-03-25T11:54:53;25.50;36.40
33476;DHT22;19814;48.224;11.422;2024-03-25T11:57:19;26.10;36.50
33476;DHT22;19814;48.224;11.422;2024-03-25T11:59:45;25.20;38.00
33476;DHT22;19814;48.224;11.422;2024-03-25T12:02:10;24.80;35.40
33476;DHT22;19814;48.224;11.422;2024-03-25T12:04:36;24.40;35.60
33476;DHT22;19814;48.224;11.422;2024-03-25T12:07:01;23.30;37.10
33476;DHT22;19814;48.224;11.422;2024-03-25T12:09:27;21.30;36.90
33476;DHT22;19814;48.224;11.422;2024-03-25T12:12:11;19.50;42.00
33476;DHT22;19814;48.224;11.422;2024-03-25T12:14:36;20.50;41.10
33476;DHT22;19814;48.224;11.422;2024-03-25T12:17:02;22.60;40.40
33476;DHT22;19814;48.224;11.422;2024-03-25T12:19:27;23.10;39.10
33476;DHT22;19814;48.224;11.422;2024-03-25T12:21:59;24.90;39.30
33476;DHT22;19814;48.224;11.422;2024-03-25T12:24:24;26.30;36.40
33476;DHT22;19814;48.224;11.422;2024-03-25T12:26:51;27.20;34.10
33476;DHT22;19814;48.224;11.422;2024-03-25T12:29:17;25.90;35.40
33476;DHT22;19814;48.224;11.422;2024-03-25T12:31:43;25.40;39.80
33476;DHT22;19814;48.224;11.422;2024-03-25T12:34:18;25.90;42.90
33476;DHT22;19814;48.224;11.422;2024-03-25T12:36:44;25.80;43.50
33476;DHT22;19814;48.224;11.422;2024-03-25T12:39:14;25.00;43.90
33476;DHT22;19814;48.224;11.422;2024-03-25T12:41:41;24.60;42.00
33476;DHT22;19814;48.224;11.422;2024-03-25T12:44:06;23.80;42.80
33476;DHT22;19814;48.224;11.422;2024-03-25T12:46:32;23.20;42.50
33476;DHT22;19814;48.224;11.422;2024-03-25T12:48:58;22.60;39.60
33476;DHT22;19814;48.224;11.422;2024-03-25T12:51:24;22.00;42.60
33476;DHT22;19814;48.224;11.422;2024-03-25T12:53:50;21.00;42.10
33476;DHT22;19814;48.224;11.422;2024-03-25T12:56:16;20.30;43.40
33476;DHT22;19814;48.224;11.422;2024-03-25T12:58:41;18.80;45.10
33476;DHT22;19814;48.224;11.422;2024-03-25T13:01:07;17.60;47.50
33476;DHT22;19814;48.224;11.422;2024-03-25T13:03:32;17.00;47.60
33476;DHT22;19814;48.224;11.422;2024-03-25T13:05:57;16.20;50.40
33476;DHT22;19814;48.224;11.422;2024-03-25T13:08:24;16.00;51.20
33476;DHT22;19814;48.224;11.422;2024-03-25T13:10:50;16.10;50.90
33476;DHT22;19814;48.224;11.422;2024-03-25T13:13:16;16.30;46.70
33476;DHT22;19814;48.224;11.422;2024-03-25T13:15:41;16.00;49.00
33476;DHT22;19814;48.224;11.422;2024-03-25T13:18:07;16.00;47.60
33476;DHT22;19814;48.224;11.422;2024-03-25T13:20:32;16.00;49.90
33476;DHT22;19814;48.224;11.422;2024-03-25T13:22:58;16.00;49.60
33476;DHT22;19814;48.224;11.422;2024-03-25T13:25:24;15.90;48.00
33476;DHT22;19814;48.224;11.422;2024-03-25T13:27:50;15.30;49.60
33476;DHT22;19814;48.224;11.422;2024-03-25T13:30:15;15.40;49.40
33476;DHT22;19814;48.224;11.422;2024-03-25T13:32:41;15.60;49.60
33476;DHT22;19814;48.224;11.422;2024-03-25T13:35:06;15.40;49.70
33476;DHT22;19814;48.224;11.422;2024-03-25T13:37:32;15.20;52.40
33476;DHT22;19814;48.224;11.422;2024-03-25T13:39:57;15.30;49.00
33476;DHT22;19814;48.224;11.422;2024-03-25T13:42:23;15.30;47.60
33476;DHT22;19814;48.224;11.422;2024-03-25T13:44:48;15.20;49.40
33476;DHT22;19814;48.224;11.422;2024-03-25T13:47:14;15.10;48.40
33476;DHT22;19814;48.224;11.422;2024-03-25T13:49:39;14.80;49.20
33476;DHT22;19814;48.224;11.422;2024-03-25T13:52:05;14.70;50.40
33476;DHT22;19814;48.224;11.422;2024-03-25T13:54:30;14.80;51.00
33476;DHT22;19814;48.224;11.422;2024-03-25T13:56:56;14.70;47.10
33476;DHT22;19814;48.224;11.422;2024-03-25T13:59:21;14.30;49.50
33476;DHT22;19814;48.224;11.422;2024-03-25T14:01:47;14.20;51.60
33476;DHT22;19814;48.224;11.422;2024-03-25T14:04:12;14.30;50.00
33476;DHT22;19814;48.224;11.422;2024-03-25T14:06:38;14.10;48.10
33476;DHT22;19814;48.224;11.422;2024-03-25T14:09:04;13.70;48.90
33476;DHT22;19814;48.224;11.422;2024-03-25T14:11:30;13.70;51.40
33476;DHT22;19814;48.224;11.422;2024-03-25T14:13:55;13.40;50.20
33476;DHT22;19814;48.224;11.422;2024-03-25T14:16:21;13.50;51.60
33476;DHT22;19814;48.224;11.422;2024-03-25T14:18:46;13.60;51.60
33476;DHT22;19814;48.224;11.422;2024-03-25T14:21:12;13.60;50.90
33476;DHT22;19814;48.224;11.422;2024-03-25T14:23:38;13.70;50.40
33476;DHT22;19814;48.224;11.422;2024-03-25T14:26:17;14.00;52.60
33476;DHT22;19814;48.224;11.422;2024-03-25T14:28:45;14.30;50.10
33476;DHT22;19814;48.224;11.422;2024-03-25T14:31:10;14.00;50.50
33476;DHT22;19814;48.224;11.422;2024-03-25T14:33:36;14.00;53.40
33476;DHT22;19814;48.224;11.422;2024-03-25T14:36:01;14.20;53.80
33476;DHT22;19814;48.224;11.422;2024-03-25T14:38:29;14.40;49.80
33476;DHT22;19814;48.224;11.422;2024-03-25T14:40:54;13.80;50.30
33476;DHT22;19814;48.224;11.422;2024-03-25T14:43:19;13.60;52.50
33476;DHT22;19814;48.224;11.422;2024-03-25T14:45:45;13.60;52.10
33476;DHT22;19814;48.224;11.422;2024-03-25T14:48:11;13.60;50.70
33476;DHT22;19814;48.224;11.422;2024-03-25T14:50:37;13.30;51.60
33476;DHT22;19814;48.224;11.422;2024-03-25T14:53:03;13.40;52.50
33476;DHT22;19814;48.224;11.422;2024-03-25T14:55:29;13.30;52.50
33476;DHT22;19814;48.224;11.422;2024-03-25T14:57:55;13.20;51.60
33476;DHT22;19814;48.224;11.422;2024-03-25T15:00:21;13.20;51.10
33476;DHT22;19814;48.224;11.422;2024-03-25T15:02:46;13.00;52.10
33476;DHT22;19814;48.224;11.422;2024-03-25T15:05:11;12.90;52.70
33476;DHT22;19814;48.224;11.422;2024-03-25T15:07:37;13.10;52.70
33476;DHT22;19814;48.224;11.422;2024-03-25T15:10:03;12.90;52.10
33476;DHT22;19814;48.224;11.422;2024-03-25T15:12:28;12.90;51.70
33476;DHT22;19814;48.224;11.422;2024-03-25T15:14:54;12.70;50.70